Time;durP1;ratioP1;P1;durP2;ratioP2;P2;SDS_P1;SDS_P2;PMS_P1;PMS_P2;Temp;Humidity;BMP_temperature;BMP_pressure;BME280_temperature;BME280_humidity;BME280_pressure;Samples;Min_cycle;Max_cycle;Signal;HPM_P1;HPM_P2
2023/02/14 00:00:10;;;;;;;475.55;78.40;;;;;;;-1.57;100.00;97965.44;2107426;28;20040;-77
2023/02/14 00:01:11;;;;;;;553.92;82.22;;;;;;;-1.50;100.00;97968.16;2107042;28;20040;-77
2023/02/14 00:02:12;;;;;;;396.77;68.28;;;;;;;-1.49;100.00;97975.03;2107034;28;20044;-77
2023/02/14 00:03:13;;;;;;;354.55;60.10;;;;;;;-1.53;100.00;97970.63;2107033;28;20046;-77
2023/02/14 00:04:15;;;;;;;555.17;80.68;;;;;;;-1.61;100.00;97965.28;2106925;28;20047;-77
2023/02/14 00:05:16;;;;;;;583.78;86.22;;;;;;;-1.61;100.00;97968.69;2107157;28;20498;-77
2023/02/14 00:06:17;;;;;;;336.05;54.58;;;;;;;-1.73;100.00;97968.31;2106912;28;20074;-77
2023/02/14 00:07:19;;;;;;;391.95;65.80;;;;;;;-1.75;100.00;97972.50;2106938;28;20046;-77
2023/02/14 00:08:20;;;;;;;336.98;58.03;;;;;;;-1.71;100.00;97969.25;2106916;28;20487;-77
2023/02/14 00:09:21;;;;;;;502.25;73.00;;;;;;;-1.66;100.00;97975.31;2098000;28;20032;-77
2023/02/14 00:10:22;;;;;;;435.98;65.75;;;;;;;-1.72;100.00;97971.72;2089801;28;20390;-77
2023/02/14 00:11:23;;;;;;;570.85;81.70;;;;;;;-1.76;100.00;97963.13;2098092;28;20024;-77
2023/02/14 00:12:24;;;;;;;548.50;77.55;;;;;;;-1.72;100.00;97970.03;2106940;28;20047;-77
2023/02/14 00:13:25;;;;;;;535.13;75.60;;;;;;;-1.67;100.00;97981.25;2106877;28;20043;-77
2023/02/14 00:15:46;;;;;;;552.90;81.78;;;;;;;-1.52;100.00;97982.53;2100760;28;20036;-78
2023/02/14 00:16:47;;;;;;;580.47;82.45;;;;;;;-1.50;100.00;97976.69;2106937;28;20428;-77
2023/02/14 00:17:50;;;;;;;510.40;78.22;;;;;;;-1.45;100.00;97976.81;2107084;28;20040;-77
2023/02/14 00:19:02;;;;;;;454.52;74.95;;;;;;;-1.45;100.00;97977.69;2107100;28;20384;-77
2023/02/14 00:20:04;;;;;;;376.73;64.75;;;;;;;-1.48;100.00;97977.59;2106857;28;20048;-78
2023/02/14 00:21:05;;;;;;;521.53;75.80;;;;;;;-1.49;100.00;97977.56;2107006;28;20052;-77
2023/02/14 00:22:06;;;;;;;273.00;54.35;;;;;;;-1.50;100.00;97975.81;2107054;28;20051;-76
2023/02/14 00:23:07;;;;;;;294.33;57.47;;;;;;;-1.57;100.00;97962.88;2098055;28;20416;-76
2023/02/14 00:24:10;;;;;;;365.38;59.38;;;;;;;-1.49;100.00;97975.03;2089528;28;20072;-76
2023/02/14 00:25:12;;;;;;;517.70;81.55;;;;;;;-1.51;100.00;97977.50;2098039;28;20047;-76
2023/02/14 00:26:13;;;;;;;227.40;48.80;;;;;;;-1.47;100.00;97970.81;2097996;28;20040;-76
2023/02/14 00:27:16;;;;;;;421.85;71.20;;;;;;;-1.57;100.00;97972.22;2098114;28;20055;-77
2023/02/14 00:28:17;;;;;;;377.60;68.00;;;;;;;-1.61;100.00;97973.78;2097777;28;20044;-76
2023/02/14 00:29:26;;;;;;;343.85;62.38;;;;;;;-1.67;100.00;97968.50;2089759;28;20093;-76
2023/02/14 00:30:27;;;;;;;;;;;;;;;-1.69;100.00;97974.38;2091125;28;20033;-76
2023/02/14 00:31:28;;;;;;;306.65;54.60;;;;;;;-1.71;100.00;97974.34;2090475;28;19912;-76
2023/02/14 00:32:30;;;;;;;423.20;64.45;;;;;;;-1.86;100.00;97978.91;2098025;28;20040;-76
2023/02/14 00:33:31;;;;;;;353.98;60.28;;;;;;;-1.86;100.00;97976.38;2106831;28;20043;-76
2023/02/14 00:34:35;;;;;;;318.05;58.15;;;;;;;-1.90;100.00;97979.63;2106746;28;20032;-76
2023/02/14 00:35:37;;;;;;;390.55;66.78;;;;;;;-1.91;100.00;97985.53;2097961;28;20040;-76
2023/02/14 00:36:38;;;;;;;345.27;57.10;;;;;;;-2.01;100.00;97976.72;2081317;28;20068;-76
2023/02/14 00:37:39;;;;;;;323.13;54.40;;;;;;;-2.02;100.00;97973.31;2081259;28;20052;-76
2023/02/14 00:38:40;;;;;;;521.92;75.78;;;;;;;-1.98;100.00;97979.34;2089582;28;20037;-76
2023/02/14 00:39:42;;;;;;;552.40;80.00;;;;;;;-1.99;100.00;97977.63;2098499;28;20393;-76
2023/02/14 00:40:43;;;;;;;461.02;74.90;;;;;;;-2.02;100.00;97980.94;2097860;28;20032;-76
2023/02/14 00:41:44;;;;;;;528.17;79.65;;;;;;;-1.96;100.00;97971.78;2097881;28;20032;-76
2023/02/14 00:42:45;;;;;;;504.42;73.72;;;;;;;-1.93;100.00;97980.38;2097656;28;20048;-77
2023/02/14 00:43:49;;;;;;;417.73;69.63;;;;;;;-1.90;100.00;97977.06;2097907;28;20033;-78
2023/02/14 00:44:51;;;;;;;486.95;74.80;;;;;;;-1.88;100.00;97980.53;2097622;28;20523;-77
2023/02/14 00:45:54;;;;;;;485.13;75.93;;;;;;;-1.85;100.00;97975.53;2089579;28;20040;-77
2023/02/14 00:46:55;;;;;;;510.63;80.15;;;;;;;-1.76;100.00;97975.88;2098196;28;20052;-73
2023/02/14 00:47:57;;;;;;;587.15;83.90;;;;;;;-1.69;100.00;97980.31;2106614;28;20035;-72
2023/02/14 00:48:58;;;;;;;349.80;63.70;;;;;;;-1.65;100.00;97978.75;2106780;28;20051;-72
2023/02/14 00:50:01;;;;;;;423.67;69.47;;;;;;;-1.60;100.00;97975.53;2097855;28;20372;-73
2023/02/14 00:51:02;;;;;;;413.48;70.15;;;;;;;-1.62;100.00;97969.53;2097915;28;20063;-73
2023/02/14 00:52:03;;;;;;;559.78;82.07;;;;;;;-1.60;100.00;97972.13;2097983;28;20040;-75
2023/02/14 00:53:05;;;;;;;378.92;64.72;;;;;;;-1.57;100.00;97985.81;2089446;28;20047;-76
2023/02/14 00:54:06;;;;;;;265.40;52.38;;;;;;;-1.59;100.00;97973.84;2097615;28;20044;-76
2023/02/14 00:55:07;;;;;;;294.08;54.13;;;;;;;-1.66;100.00;97972.78;2089693;28;20044;-76
2023/02/14 00:56:08;;;;;;;253.77;53.78;;;;;;;-1.71;100.00;97978.53;2089509;28;20045;-76
2023/02/14 00:57:10;;;;;;;318.75;57.15;;;;;;;-1.77;100.00;97982.59;2088583;28;20048;-76
2023/02/14 00:58:11;;;;;;;332.40;57.35;;;;;;;-1.83;100.00;97987.50;2072447;28;20057;-75
2023/02/14 00:59:12;;;;;;;403.23;63.90;;;;;;;-1.82;100.00;97986.72;2089620;28;20044;-76
2023/02/14 01:00:16;;;;;;;393.88;59.58;;;;;;;-1.75;100.00;97984.38;2106608;28;20504;-76
2023/02/14 01:01:17;;;;;;;305.65;58.85;;;;;;;-1.79;100.00;97978.31;2106173;28;20052;-76
2023/02/14 01:02:18;;;;;;;498.02;73.18;;;;;;;-1.70;100.00;97986.25;2106977;28;20036;-74
2023/02/14 01:03:19;;;;;;;372.73;63.85;;;;;;;-1.67;100.00;97991.44;2106582;28;20403;-74
2023/02/14 01:04:21;;;;;;;562.15;81.32;;;;;;;-1.66;100.00;97988.06;2097777;28;20033;-74
2023/02/14 01:05:22;;;;;;;511.15;77.05;;;;;;;-1.61;100.00;97990.75;2097546;28;20040;-74
2023/02/14 01:06:23;;;;;;;517.95;78.13;;;;;;;-1.61;100.00;97986.53;2106586;28;20036;-74
2023/02/14 01:07:24;;;;;;;215.93;50.40;;;;;;;-1.57;100.00;97990.06;2097810;28;20035;-76
2023/02/14 01:08:25;;;;;;;306.33;59.90;;;;;;;-1.55;100.00;97996.06;2097725;28;20040;-76
2023/02/14 01:09:26;;;;;;;309.65;58.28;;;;;;;-1.63;100.00;97989.84;2089499;28;20045;-76
2023/02/14 01:10:28;;;;;;;268.50;56.60;;;;;;;-1.60;100.00;97987.41;2089415;28;20524;-76
2023/02/14 01:11:29;;;;;;;256.90;51.80;;;;;;;-1.60;100.00;97989.97;2097499;28;20040;-76
2023/02/14 01:12:30;;;;;;;403.20;65.00;;;;;;;-1.84;100.00;97964.56;2106575;28;20039;-76
2023/02/14 01:13:31;;;;;;;359.33;64.40;;;;;;;-1.73;100.00;97990.38;2106627;28;20028;-76
2023/02/14 01:14:32;;;;;;;255.82;53.05;;;;;;;-1.67;100.00;97988.88;2106540;28;20400;-76
2023/02/14 01:15:37;;;;;;;334.85;57.00;;;;;;;-1.75;100.00;97989.47;2097700;28;20052;-76
2023/02/14 01:16:39;;;;;;;253.80;53.38;;;;;;;-1.78;100.00;97995.31;2090037;28;20052;-76
2023/02/14 01:17:40;;;;;;;236.73;50.67;;;;;;;-1.82;100.00;97994.34;2097431;28;20071;-76
2023/02/14 01:18:41;;;;;;;263.05;42.95;;;;;;;-1.98;100.00;97988.69;2106486;28;20043;-76
2023/02/14 01:19:44;;;;;;;338.23;56.83;;;;;;;-2.06;100.00;97983.31;2097447;28;20061;-76
2023/02/14 01:20:45;;;;;;;309.67;59.17;;;;;;;-2.01;100.00;97980.13;2089190;28;20045;-76
2023/02/14 01:21:46;;;;;;;354.63;61.55;;;;;;;-1.85;100.00;97988.28;2089569;28;20047;-76
2023/02/14 01:22:47;;;;;;;362.67;65.32;;;;;;;-1.79;100.00;97991.91;2089256;28;20044;-76
2023/02/14 01:23:50;;;;;;;412.60;65.78;;;;;;;-1.75;100.00;97989.47;2089376;28;20045;-76
2023/02/14 01:24:52;;;;;;;426.58;68.43;;;;;;;-1.77;100.00;97992.81;2089769;28;20373;-76
2023/02/14 01:25:53;;;;;;;334.55;57.95;;;;;;;-1.71;100.00;97992.16;2097928;28;20036;-76
2023/02/14 01:26:54;;;;;;;335.95;61.97;;;;;;;-1.70;100.00;97990.47;2106460;28;20044;-76
2023/02/14 01:27:56;;;;;;;206.07;46.47;;;;;;;-1.70;100.00;97987.94;2106530;28;20066;-76
2023/02/14 01:28:57;;;;;;;250.55;50.95;;;;;;;-1.75;100.00;97990.31;2097451;28;20048;-76
2023/02/14 01:29:58;;;;;;;226.02;48.85;;;;;;;-1.78;100.00;97988.53;2097471;28;20044;-76
2023/02/14 01:31:09;;;;;;;220.88;44.85;;;;;;;-1.81;100.00;97987.56;2097427;28;20051;-76
2023/02/14 01:32:10;;;;;;;279.02;48.63;;;;;;;-1.88;100.00;97985.63;2099052;28;20044;-76
2023/02/14 01:33:12;;;;;;;307.70;55.40;;;;;;;-1.81;100.00;97990.13;2106539;28;20048;-76
2023/02/14 01:34:13;;;;;;;281.65;54.38;;;;;;;-1.82;100.00;97990.91;2106474;28;20395;-76
2023/02/14 01:35:14;;;;;;;583.83;81.72;;;;;;;-1.78;100.00;97993.63;2097839;28;20040;-76
2023/02/14 01:36:19;;;;;;;301.23;55.03;;;;;;;-1.74;100.00;97989.50;2089488;28;20044;-76
2023/02/14 01:37:20;;;;;;;357.20;65.28;;;;;;;-1.74;100.00;97988.63;2097551;28;20045;-76
2023/02/14 01:38:22;;;;;;;395.73;66.43;;;;;;;-1.74;100.00;97986.94;2089359;28;20049;-76
2023/02/14 01:39:23;;;;;;;254.38;55.78;;;;;;;-1.71;100.00;97986.19;2097560;28;20512;-76
2023/02/14 01:40:24;;;;;;;211.15;47.65;;;;;;;-1.68;100.00;97983.75;2106341;28;20031;-76
2023/02/14 01:41:26;;;;;;;363.70;64.80;;;;;;;-1.64;100.00;97986.44;2106510;28;20040;-76
2023/02/14 01:42:28;;;;;;;344.00;59.92;;;;;;;-1.61;100.00;97985.66;2089063;28;20504;-76
2023/02/14 01:43:29;;;;;;;301.05;57.92;;;;;;;-1.64;100.00;97980.47;2089180;28;20043;-75
2023/02/14 01:44:30;;;;;;;163.18;43.63;;;;;;;-1.61;100.00;97980.56;2106528;28;20467;-76
2023/02/14 01:45:31;;;;;;;453.42;73.07;;;;;;;-1.67;100.00;97973.59;2097457;28;20040;-76
2023/02/14 01:46:36;;;;;;;514.45;71.28;;;;;;;-1.64;100.00;97981.34;2090600;28;20040;-76
2023/02/14 01:47:39;;;;;;;302.58;60.33;;;;;;;-1.70;100.00;97981.16;2098492;28;20408;-76
2023/02/14 01:48:40;;;;;;;438.30;68.75;;;;;;;-1.68;100.00;97982.06;2089169;28;20438;-76
2023/02/14 01:49:46;;;;;;;304.73;54.58;;;;;;;-1.72;100.00;97979.38;2081381;28;20037;-76
2023/02/14 01:50:47;;;;;;;356.27;57.25;;;;;;;-1.64;100.00;97980.47;2090036;28;20049;-76
2023/02/14 01:51:57;;;;;;;328.92;55.15;;;;;;;-1.91;100.00;97945.66;2097767;28;20067;-73
2023/02/14 01:53:05;;;;;;;318.95;55.60;;;;;;;-1.73;100.00;97965.75;2091932;28;20037;-73
2023/02/14 01:54:06;;;;;;;405.05;66.70;;;;;;;-1.66;100.00;97977.00;2089719;28;20049;-73
2023/02/14 01:55:10;;;;;;;369.20;62.40;;;;;;;-1.67;100.00;97967.66;2089285;28;20353;-73
2023/02/14 01:56:17;;;;;;;360.27;60.90;;;;;;;-1.70;100.00;97977.75;2089045;28;20048;-73
2023/02/14 01:57:18;;;;;;;419.33;67.68;;;;;;;-1.67;100.00;97982.94;2074338;28;20045;-72
2023/02/14 01:58:21;;;;;;;382.13;66.35;;;;;;;-1.90;100.00;97949.06;2081694;28;20401;-73
2023/02/14 01:59:24;;;;;;;336.25;61.00;;;;;;;-1.73;100.00;97981.06;2080998;28;20542;-73
2023/02/14 02:01:45;;;;;;;355.08;60.08;;;;;;;-1.70;100.00;97981.16;2100383;28;20032;-72
2023/02/14 02:02:46;;;;;;;376.00;62.53;;;;;;;-1.68;100.00;97982.06;2089169;28;20044;-73
2023/02/14 02:03:50;;;;;;;512.95;73.05;;;;;;;-1.70;100.00;97975.19;2088995;28;20041;-73
2023/02/14 02:04:53;;;;;;;328.00;58.05;;;;;;;-1.77;100.00;97971.56;2089129;28;20048;-72
2023/02/14 02:05:57;;;;;;;341.65;62.55;;;;;;;-1.94;100.00;97959.97;2081436;28;20421;-73
2023/02/14 02:07:02;;;;;;;383.23;61.10;;;;;;;-1.99;100.00;97957.25;2080936;28;20470;-76
2023/02/14 02:08:03;;;;;;;353.05;54.63;;;;;;;-1.95;100.00;97976.94;2074376;28;20052;-76
2023/02/14 02:09:13;;;;;;;513.55;76.80;;;;;;;-1.83;100.00;97982.41;2097440;28;20459;-76
2023/02/14 02:10:14;;;;;;;197.63;47.67;;;;;;;-1.78;100.00;97980.91;2106360;28;20036;-76
2023/02/14 02:11:16;;;;;;;361.75;65.07;;;;;;;-1.74;100.00;97981.84;2089180;28;20476;-77
2023/02/14 02:12:17;;;;;;;317.88;56.67;;;;;;;-1.71;100.00;97979.44;2089180;28;20029;-76
2023/02/14 02:13:19;;;;;;;423.02;71.00;;;;;;;-1.70;100.00;97978.59;2088921;28;20037;-76
2023/02/14 02:14:20;;;;;;;341.40;62.72;;;;;;;-1.71;100.00;97981.09;2090737;28;20056;-76
2023/02/14 02:15:22;;;;;;;480.98;70.90;;;;;;;-1.78;100.00;97972.38;2098743;28;20475;-77
2023/02/14 02:16:32;;;;;;;343.08;55.88;;;;;;;-1.84;100.00;97978.16;2074355;28;20065;-76
2023/02/14 02:17:43;;;;;;;321.80;57.30;;;;;;;-1.77;100.00;97976.66;2085938;28;20037;-76
2023/02/14 02:18:49;;;;;;;417.35;65.60;;;;;;;-1.85;100.00;97955.16;2098860;28;20044;-76
2023/02/14 02:20:02;;;;;;;334.95;55.33;;;;;;;-1.74;100.00;97968.25;2082758;28;20057;-76
2023/02/14 02:21:35;;;;;;;494.40;71.18;;;;;;;-1.71;100.00;97969.25;2093952;28;20051;-76
2023/02/14 02:22:57;;;;;;;599.50;76.70;;;;;;;-1.71;100.00;97956.50;2098988;28;20483;-76
2023/02/14 02:24:12;;;;;;;581.90;79.13;;;;;;;-1.68;100.00;97960.84;2102071;28;20040;-76
2023/02/14 02:25:51;;;;;;;285.45;49.53;;;;;;;-1.67;100.00;97965.09;2099050;28;20045;-76
2023/02/14 02:27:31;;;;;;;212.75;44.47;;;;;;;-1.72;100.00;97969.16;2104522;28;20035;-73
2023/02/14 02:28:43;;;;;;;317.48;54.95;;;;;;;-1.83;100.00;97968.81;2098699;28;20032;-73
2023/02/14 02:30:02;;;;;;;281.13;51.58;;;;;;;-1.82;100.00;97975.63;2092208;28;20448;-73
2023/02/14 02:31:19;;;;;;;;;;;;;;;-1.86;100.00;97977.22;2102162;28;20134;-72
2023/02/14 02:32:33;;;;;;;201.25;43.63;;;;;;;-1.83;100.00;97974.78;2099417;28;20291;-76
2023/02/14 02:33:41;;;;;;;330.42;52.17;;;;;;;-1.86;100.00;97971.28;2084311;28;20040;-76
2023/02/14 02:35:21;;;;;;;289.65;48.35;;;;;;;-1.90;100.00;97967.75;2092059;28;20036;-76
2023/02/14 02:36:43;;;;;;;295.20;50.67;;;;;;;-1.89;100.00;97966.09;2098783;28;20495;-76
2023/02/14 02:38:12;;;;;;;405.67;61.35;;;;;;;-1.91;100.00;97966.03;2093287;28;20047;-76
2023/02/14 02:39:36;;;;;;;316.65;49.17;;;;;;;-1.98;100.00;97958.13;2094481;28;20044;-75
2023/02/14 02:40:46;;;;;;;355.45;52.38;;;;;;;-1.95;100.00;97969.31;2085388;28;20041;-76
2023/02/14 02:42:05;;;;;;;543.97;72.82;;;;;;;-2.00;100.00;97970.81;2087541;28;20040;-76
2023/02/14 02:43:29;;;;;;;418.30;60.40;;;;;;;-2.03;100.00;97961.41;2101570;28;20491;-77
2023/02/14 02:44:42;;;;;;;369.65;55.88;;;;;;;-1.98;100.00;97971.72;2083786;28;20353;-77
2023/02/14 02:47:27;;;;;;;472.20;66.78;;;;;;;-2.01;100.00;97969.06;2082244;28;20037;-77
2023/02/14 02:48:40;;;;;;;520.90;72.30;;;;;;;-2.02;100.00;97969.91;2077555;28;20068;-77
2023/02/14 02:53:07;;;;;;;380.02;59.53;;;;;;;-1.97;100.00;97980.25;2093593;28;20048;-77
2023/02/14 02:54:28;;;;;;;369.42;58.67;;;;;;;-1.93;100.00;97979.53;2090189;28;20749;-77
2023/02/14 02:57:19;;;;;;;217.20;40.63;;;;;;;-1.91;100.00;97977.91;2081887;28;20056;-77
2023/02/14 02:58:20;;;;;;;239.68;48.13;;;;;;;-1.89;100.00;97979.69;2086033;28;20493;-77
2023/02/14 02:59:22;;;;;;;223.95;38.25;;;;;;;-1.89;100.00;97981.38;2082224;28;20037;-77
2023/02/14 03:00:26;;;;;;;264.58;52.13;;;;;;;-1.89;100.00;97981.38;2082476;28;20056;-77
2023/02/14 03:01:33;;;;;;;295.02;54.15;;;;;;;-1.92;100.00;97987.22;2082281;28;20045;-77
2023/02/14 03:05:23;;;;;;;272.40;50.92;;;;;;;-2.01;100.00;97980.13;2087851;28;20485;-76
2023/02/14 03:06:25;;;;;;;288.38;55.50;;;;;;;-1.97;100.00;97981.09;2085056;28;20041;-76
2023/02/14 03:07:35;;;;;;;290.52;54.00;;;;;;;-1.98;100.00;97984.44;2082111;28;20030;-75
2023/02/14 03:08:39;;;;;;;362.75;62.08;;;;;;;-2.05;100.00;97983.38;2091756;28;20543;-74
2023/02/14 03:09:40;;;;;;;188.65;46.75;;;;;;;-2.05;100.00;97983.38;2090125;28;20024;-74
2023/02/14 03:10:42;;;;;;;236.43;51.97;;;;;;;-2.01;100.00;97975.03;2098371;28;20427;-74
2023/02/14 03:12:06;;;;;;;181.20;44.05;;;;;;;-1.93;100.00;97982.94;2081965;28;20056;-74
2023/02/14 03:13:43;;;;;;;245.88;50.60;;;;;;;-1.97;100.00;97987.88;2066547;28;20049;-73
2023/02/14 03:14:43;;;;;;;396.88;62.38;;;;;;;-2.07;100.00;97981.59;2076826;28;20056;-73
2023/02/14 03:15:51;;;;;;;385.60;61.92;;;;;;;-2.13;100.00;97986.50;2073427;28;20069;-74
2023/02/14 03:17:00;;;;;;;462.52;65.50;;;;;;;-2.10;100.00;97984.06;2080066;28;20053;-77
2023/02/14 03:18:21;;;;;;;444.08;65.55;;;;;;;-2.05;100.00;97974.91;2107559;28;20059;-77
2023/02/14 03:19:31;;;;;;;363.15;62.38;;;;;;;-2.03;100.00;97974.13;2098293;28;20068;-77
2023/02/14 03:20:54;;;;;;;443.35;66.45;;;;;;;-1.97;100.00;97976.00;2091476;28;20032;-77
2023/02/14 03:22:37;;;;;;;322.60;58.30;;;;;;;-1.92;100.00;97971.94;2102426;28;20484;-77
2023/02/14 03:24:01;;;;;;;231.40;49.55;;;;;;;-1.96;100.00;97972.63;2076061;28;20099;-77
2023/02/14 03:25:15;;;;;;;267.60;50.75;;;;;;;-2.14;100.00;97967.78;2091225;28;20047;-77
2023/02/14 03:26:36;;;;;;;561.85;75.45;;;;;;;-2.15;100.00;97960.13;2107353;28;20211;-78
2023/02/14 03:27:45;;;;;;;525.08;77.85;;;;;;;-2.07;100.00;97963.78;2090113;28;20067;-74
2023/02/14 03:28:46;;;;;;;582.72;80.20;;;;;;;-2.02;100.00;97967.34;2077552;28;20168;-74
2023/02/14 03:29:59;;;;;;;547.53;74.68;;;;;;;-1.94;100.00;97963.38;2073274;28;20069;-74
2023/02/14 03:31:07;;;;;;;331.95;61.72;;;;;;;-1.88;100.00;97966.13;2085132;28;20057;-74
2023/02/14 03:32:17;;;;;;;277.80;52.95;;;;;;;-1.85;100.00;97962.81;2099667;28;20056;-76
2023/02/14 03:33:20;;;;;;;221.95;46.58;;;;;;;-1.84;100.00;97965.41;2089948;28;20064;-76
2023/02/14 03:34:36;;;;;;;227.30;50.95;;;;;;;-1.81;100.00;97959.56;2082700;28;20042;-76
2023/02/14 03:36:00;;;;;;;198.98;41.88;;;;;;;-1.93;100.00;97954.91;2092125;28;20037;-76
2023/02/14 03:37:09;;;;;;;154.80;35.25;;;;;;;-2.00;100.00;97951.31;2086089;28;20538;-76
2023/02/14 03:38:14;;;;;;;234.40;49.33;;;;;;;-2.03;100.00;97960.53;2093490;28;20045;-76
2023/02/14 03:39:22;;;;;;;237.15;49.55;;;;;;;-2.02;100.00;97952.06;2090575;28;20052;-75
2023/02/14 03:40:27;;;;;;;311.38;57.13;;;;;;;-2.10;100.00;97946.72;2082755;28;20068;-75
2023/02/14 03:41:30;;;;;;;351.27;57.10;;;;;;;-2.09;100.00;97957.75;2082649;28;20037;-76
2023/02/14 03:42:35;;;;;;;353.85;61.20;;;;;;;-2.13;100.00;97955.94;2073989;28;20038;-76
2023/02/14 03:43:40;;;;;;;417.45;66.05;;;;;;;-2.15;100.00;97960.97;2081400;28;20052;-77
2023/02/14 03:44:41;;;;;;;341.38;57.20;;;;;;;-2.31;100.00;97958.72;2075552;28;20065;-76
2023/02/14 03:45:47;;;;;;;477.52;67.75;;;;;;;-2.17;100.00;97967.69;2081957;28;20520;-76
2023/02/14 03:46:50;;;;;;;459.60;71.70;;;;;;;-2.16;100.00;97969.44;2091555;28;20052;-76
2023/02/14 03:47:51;;;;;;;289.38;54.00;;;;;;;-2.12;100.00;97961.06;2090163;28;20471;-76
2023/02/14 03:48:54;;;;;;;343.08;56.10;;;;;;;-2.03;100.00;97968.19;2065471;28;20038;-76
2023/02/14 03:50:03;;;;;;;366.02;62.92;;;;;;;-2.04;100.00;97969.84;2073748;28;20049;-76
2023/02/14 03:51:05;;;;;;;404.00;67.65;;;;;;;-1.99;100.00;97962.34;2075892;28;20049;-76
2023/02/14 03:52:06;;;;;;;405.25;67.38;;;;;;;-1.95;100.00;97966.75;2074071;28;20038;-73
2023/02/14 03:53:09;;;;;;;251.52;50.97;;;;;;;-1.97;100.00;97950.56;2073802;28;20474;-73
2023/02/14 03:54:10;;;;;;;229.18;49.10;;;;;;;-1.87;100.00;97962.78;2065530;28;20046;-73
2023/02/14 03:55:11;;;;;;;281.00;55.38;;;;;;;-1.86;100.00;97963.63;2065318;28;20046;-73
2023/02/14 03:56:21;;;;;;;211.52;50.50;;;;;;;-1.87;100.00;97961.88;2081735;28;20041;-73
2023/02/14 03:57:25;;;;;;;288.25;55.47;;;;;;;-1.99;100.00;97952.16;2084177;28;20033;-73
2023/02/14 03:58:29;;;;;;;331.75;60.95;;;;;;;-1.88;100.00;97965.25;2089907;28;20064;-73
2023/02/14 03:59:30;;;;;;;420.83;71.22;;;;;;;-1.90;100.00;97954.16;2090929;28;20040;-73
2023/02/14 04:00:31;;;;;;;295.50;59.58;;;;;;;-1.89;100.00;97961.00;2097915;28;20048;-73
2023/02/14 04:01:35;;;;;;;541.70;80.75;;;;;;;-1.95;100.00;97946.38;2089896;28;20041;-73
2023/02/14 04:02:38;;;;;;;455.63;67.43;;;;;;;-2.00;100.00;97951.31;2090425;28;20041;-73
2023/02/14 04:03:40;;;;;;;338.02;63.03;;;;;;;-2.07;100.00;97949.38;2081786;28;20042;-73
2023/02/14 04:04:43;;;;;;;423.40;72.50;;;;;;;-2.05;100.00;97949.44;2073203;28;20049;-73
2023/02/14 04:05:45;;;;;;;357.35;62.00;;;;;;;-2.02;100.00;97945.28;2073886;28;20453;-73
2023/02/14 04:06:46;;;;;;;290.85;58.60;;;;;;;-2.00;100.00;97956.41;2082140;28;20430;-73
2023/02/14 04:07:49;;;;;;;428.77;70.90;;;;;;;-1.96;100.00;97959.91;2081855;28;20045;-73
2023/02/14 04:08:50;;;;;;;322.50;55.75;;;;;;;-1.92;100.00;97966.00;2090200;28;20052;-73
2023/02/14 04:09:51;;;;;;;282.67;54.83;;;;;;;-2.00;100.00;97966.59;2097484;28;20051;-73
2023/02/14 04:10:53;;;;;;;215.00;47.75;;;;;;;-2.03;100.00;97966.50;2089781;28;20049;-74
2023/02/14 04:11:54;;;;;;;262.48;56.85;;;;;;;-2.04;100.00;97967.28;2098176;28;20040;-73
2023/02/14 04:12:55;;;;;;;357.08;60.33;;;;;;;-2.02;100.00;97972.44;2097937;28;20385;-73
2023/02/14 04:13:56;;;;;;;305.23;56.72;;;;;;;-1.96;100.00;97967.53;2097976;28;20039;-73
2023/02/14 04:14:57;;;;;;;220.90;50.22;;;;;;;-1.91;100.00;97973.66;2097944;28;20048;-73
2023/02/14 04:15:58;;;;;;;147.05;41.15;;;;;;;-1.87;100.00;97970.41;2106919;28;20044;-74
2023/02/14 04:19:39;;;;;;;288.98;57.88;;;;;;;-1.91;100.00;97975.34;2097691;28;20059;-73
2023/02/14 04:20:40;;;;;;;257.80;49.25;;;;;;;-1.95;100.00;97971.84;2089983;28;20408;-73
2023/02/14 04:21:41;;;;;;;328.23;59.45;;;;;;;-2.00;100.00;97961.50;2097952;28;20044;-74
2023/02/14 04:22:42;;;;;;;213.32;48.83;;;;;;;-1.96;100.00;97966.69;2097305;28;20049;-73
2023/02/14 04:23:43;;;;;;;238.63;52.85;;;;;;;-2.02;100.00;97962.25;2097945;28;20048;-73
2023/02/14 04:24:44;;;;;;;328.73;61.30;;;;;;;-1.97;100.00;97973.47;2106908;28;20463;-73
2023/02/14 04:25:45;;;;;;;177.95;44.95;;;;;;;-2.04;100.00;97966.44;2106848;28;20031;-74
2023/02/14 04:28:06;;;;;;;181.18;40.55;;;;;;;-2.05;100.00;97968.13;2107062;28;20055;-73
2023/02/14 04:29:07;;;;;;;387.40;60.38;;;;;;;-2.02;100.00;97968.22;2106831;28;20468;-73
2023/02/14 04:30:09;;;;;;;308.50;55.97;;;;;;;-2.03;100.00;97976.69;2106901;28;20036;-73
2023/02/14 04:31:10;;;;;;;311.60;57.10;;;;;;;-2.11;100.00;97973.00;2106941;28;20058;-73
2023/02/14 04:32:13;;;;;;;325.65;57.83;;;;;;;-2.06;100.00;97976.56;2106737;28;20070;-73
2023/02/14 04:33:14;;;;;;;276.50;53.28;;;;;;;-2.03;100.00;97971.59;2097938;28;20384;-73
2023/02/14 04:34:15;;;;;;;227.93;53.42;;;;;;;-2.10;100.00;97969.63;2097844;28;20047;-73
2023/02/14 04:35:16;;;;;;;226.98;49.03;;;;;;;-2.06;100.00;97979.13;2106720;28;20043;-73
2023/02/14 04:36:17;;;;;;;149.75;42.28;;;;;;;-2.09;100.00;97971.34;2106090;28;20047;-73
2023/02/14 04:37:18;;;;;;;257.42;50.60;;;;;;;-2.16;100.00;97979.63;2107060;28;20063;-77
2023/02/14 04:38:19;;;;;;;324.33;58.70;;;;;;;-2.20;100.00;97982.00;2106756;28;20035;-76
2023/02/14 04:39:21;;;;;;;376.17;62.20;;;;;;;-2.25;100.00;97979.28;2106749;28;20077;-76
2023/02/14 04:40:22;;;;;;;318.83;58.30;;;;;;;-2.29;100.00;97983.41;2106680;28;20032;-77
2023/02/14 04:41:23;;;;;;;301.83;54.35;;;;;;;-2.18;100.00;97980.38;2106787;28;20043;-77
2023/02/14 04:42:24;;;;;;;411.90;64.28;;;;;;;-2.18;100.00;97980.38;2107103;28;20043;-77
2023/02/14 04:43:25;;;;;;;231.23;49.45;;;;;;;-2.13;100.00;97969.53;2107049;28;20388;-76
2023/02/14 04:44:26;;;;;;;347.75;61.05;;;;;;;-2.15;100.00;97971.16;2098412;28;20055;-76
2023/02/14 04:45:27;;;;;;;255.05;52.00;;;;;;;-2.15;100.00;97983.88;2097764;28;20033;-77
2023/02/14 04:46:28;;;;;;;224.27;52.67;;;;;;;-2.23;100.00;97953.06;2106877;28;20043;-77
2023/02/14 04:47:29;;;;;;;188.43;47.30;;;;;;;-2.08;100.00;97980.75;2106872;28;20494;-77
2023/02/14 04:48:31;;;;;;;211.13;49.10;;;;;;;-2.03;100.00;97975.81;2106720;28;20031;-77
2023/02/14 04:49:32;;;;;;;223.07;51.08;;;;;;;-2.21;100.00;97955.69;2107011;28;20047;-77
2023/02/14 04:50:33;;;;;;;174.70;45.42;;;;;;;-2.08;100.00;97969.69;2089443;28;20044;-77
2023/02/14 04:51:34;;;;;;;188.88;44.10;;;;;;;-2.09;100.00;97971.34;2089407;28;20033;-77
2023/02/14 04:52:35;;;;;;;191.68;44.70;;;;;;;-2.14;100.00;97965.25;2106667;28;20031;-77
2023/02/14 04:53:39;;;;;;;173.80;39.88;;;;;;;-2.17;100.00;97975.31;2106793;28;20403;-77
2023/02/14 04:54:40;;;;;;;172.13;39.83;;;;;;;-2.23;100.00;97973.44;2097592;28;20059;-77
2023/02/14 04:55:41;;;;;;;287.13;55.45;;;;;;;-2.23;100.00;97975.97;2097602;28;20040;-77
2023/02/14 04:56:42;;;;;;;294.00;53.08;;;;;;;-2.26;100.00;97965.69;2089527;28;20045;-77
2023/02/14 04:57:43;;;;;;;306.00;52.65;;;;;;;-2.32;100.00;97964.63;2097754;28;20052;-76
2023/02/14 04:58:44;;;;;;;294.70;50.20;;;;;;;-2.38;100.00;97970.34;2106600;28;20051;-77
2023/02/14 04:59:45;;;;;;;233.50;47.90;;;;;;;-2.37;100.00;97958.53;2106704;28;20051;-76
2023/02/14 05:00:47;;;;;;;401.30;65.43;;;;;;;-2.32;100.00;97969.72;2097530;28;20055;-77
2023/02/14 05:01:48;;;;;;;504.27;69.90;;;;;;;-2.33;100.00;97960.34;2097686;28;20044;-74
2023/02/14 05:02:49;;;;;;;492.63;66.05;;;;;;;-2.27;100.00;97960.56;2106615;28;20043;-74
2023/02/14 05:03:50;;;;;;;278.70;49.30;;;;;;;-2.32;100.00;97964.63;2106670;28;20416;-73
2023/02/14 05:04:51;;;;;;;170.15;39.65;;;;;;;-2.41;100.00;97946.50;2106761;28;20034;-73
2023/02/14 05:05:52;;;;;;;223.93;48.10;;;;;;;-2.28;100.00;97969.00;2106625;28;20040;-73
2023/02/14 05:06:53;;;;;;;289.08;48.53;;;;;;;-2.31;100.00;97958.72;2097730;28;20040;-77